sensor_id;sensor_type;location;lat;lon;timestamp;P1;durP1;ratioP1;P2;durP2;ratioP2
72715;SDS011;60830;64.560;40.542;2022-11-20T00:01:15;5.63;;;2.67;;
72715;SDS011;60830;64.560;40.542;2022-11-20T00:03:41;5.55;;;1.77;;
72715;SDS011;60830;64.560;40.542;2022-11-20T00:06:09;5.43;;;2.22;;
72715;SDS011;60830;64.560;40.542;2022-11-20T00:08:35;6.20;;;1.98;;
72715;SDS011;60830;64.560;40.542;2022-11-20T00:11:05;9.90;;;3.10;;
72715;SDS011;60830;64.560;40.542;2022-11-20T00:13:32;5.00;;;2.10;;
72715;SDS011;60830;64.560;40.542;2022-11-20T00:15:58;5.43;;;2.30;;
72715;SDS011;60830;64.560;40.542;2022-11-20T00:18:25;5.88;;;2.05;;
72715;SDS011;60830;64.560;40.542;2022-11-20T00:20:51;2.35;;;1.58;;
72715;SDS011;60830;64.560;40.542;2022-11-20T00:23:17;7.32;;;2.80;;
72715;SDS011;60830;64.560;40.542;2022-11-20T00:25:43;5.05;;;2.63;;
72715;SDS011;60830;64.560;40.542;2022-11-20T00:28:09;6.63;;;2.03;;
72715;SDS011;60830;64.560;40.542;2022-11-20T00:30:35;4.68;;;2.47;;
72715;SDS011;60830;64.560;40.542;2022-11-20T00:33:01;8.02;;;2.42;;
72715;SDS011;60830;64.560;40.542;2022-11-20T00:35:27;3.70;;;2.22;;
72715;SDS011;60830;64.560;40.542;2022-11-20T00:37:54;5.38;;;2.45;;
72715;SDS011;60830;64.560;40.542;2022-11-20T00:40:20;7.47;;;2.33;;
72715;SDS011;60830;64.560;40.542;2022-11-20T00:42:46;4.65;;;2.20;;
72715;SDS011;60830;64.560;40.542;2022-11-20T00:45:12;8.00;;;2.90;;
72715;SDS011;60830;64.560;40.542;2022-11-20T00:47:38;8.68;;;2.78;;
72715;SDS011;60830;64.560;40.542;2022-11-20T00:50:04;7.25;;;2.10;;
72715;SDS011;60830;64.560;40.542;2022-11-20T00:52:30;3.90;;;3.03;;
72715;SDS011;60830;64.560;40.542;2022-11-20T00:54:56;4.78;;;2.30;;
72715;SDS011;60830;64.560;40.542;2022-11-20T00:57:22;6.97;;;2.63;;
72715;SDS011;60830;64.560;40.542;2022-11-20T00:59:48;4.40;;;1.92;;
72715;SDS011;60830;64.560;40.542;2022-11-20T01:02:14;4.78;;;2.05;;
72715;SDS011;60830;64.560;40.542;2022-11-20T01:04:42;4.95;;;1.98;;
72715;SDS011;60830;64.560;40.542;2022-11-20T01:07:08;3.85;;;2.05;;
72715;SDS011;60830;64.560;40.542;2022-11-20T01:09:34;4.05;;;2.70;;
72715;SDS011;60830;64.560;40.542;2022-11-20T01:12:00;3.90;;;1.75;;
72715;SDS011;60830;64.560;40.542;2022-11-20T01:14:26;6.13;;;2.28;;
72715;SDS011;60830;64.560;40.542;2022-11-20T01:16:52;8.73;;;2.45;;
72715;SDS011;60830;64.560;40.542;2022-11-20T01:19:19;4.38;;;2.00;;
72715;SDS011;60830;64.560;40.542;2022-11-20T01:21:48;8.52;;;3.00;;
72715;SDS011;60830;64.560;40.542;2022-11-20T01:24:15;3.10;;;2.00;;
72715;SDS011;60830;64.560;40.542;2022-11-20T01:26:41;4.35;;;2.10;;
72715;SDS011;60830;64.560;40.542;2022-11-20T01:29:15;6.82;;;2.08;;
72715;SDS011;60830;64.560;40.542;2022-11-20T01:31:42;6.70;;;2.60;;
72715;SDS011;60830;64.560;40.542;2022-11-20T01:34:12;5.18;;;2.10;;
72715;SDS011;60830;64.560;40.542;2022-11-20T01:36:39;6.05;;;2.15;;
72715;SDS011;60830;64.560;40.542;2022-11-20T01:39:06;8.98;;;3.55;;
72715;SDS011;60830;64.560;40.542;2022-11-20T01:41:33;6.32;;;1.88;;
72715;SDS011;60830;64.560;40.542;2022-11-20T01:49:20;11.70;;;2.78;;
72715;SDS011;60830;64.560;40.542;2022-11-20T01:51:52;9.85;;;3.17;;
72715;SDS011;60830;64.560;40.542;2022-11-20T01:54:22;6.97;;;2.75;;
72715;SDS011;60830;64.560;40.542;2022-11-20T01:56:49;6.43;;;2.30;;
72715;SDS011;60830;64.560;40.542;2022-11-20T01:59:16;6.75;;;2.53;;
72715;SDS011;60830;64.560;40.542;2022-11-20T02:01:43;3.70;;;2.28;;
72715;SDS011;60830;64.560;40.542;2022-11-20T02:04:09;6.47;;;2.78;;
72715;SDS011;60830;64.560;40.542;2022-11-20T02:06:38;5.05;;;2.20;;
72715;SDS011;60830;64.560;40.542;2022-11-20T02:09:05;5.22;;;2.38;;
72715;SDS011;60830;64.560;40.542;2022-11-20T02:11:32;6.03;;;2.53;;
72715;SDS011;60830;64.560;40.542;2022-11-20T02:13:58;6.10;;;2.42;;
72715;SDS011;60830;64.560;40.542;2022-11-20T02:16:29;3.83;;;2.20;;
72715;SDS011;60830;64.560;40.542;2022-11-20T02:18:56;7.82;;;2.33;;
72715;SDS011;60830;64.560;40.542;2022-11-20T02:26:49;6.15;;;2.15;;
72715;SDS011;60830;64.560;40.542;2022-11-20T02:29:16;3.33;;;2.15;;
72715;SDS011;60830;64.560;40.542;2022-11-20T02:31:44;5.97;;;2.47;;
72715;SDS011;60830;64.560;40.542;2022-11-20T02:34:10;8.10;;;2.83;;
72715;SDS011;60830;64.560;40.542;2022-11-20T02:36:37;8.38;;;2.75;;
72715;SDS011;60830;64.560;40.542;2022-11-20T02:39:05;5.13;;;2.70;;
72715;SDS011;60830;64.560;40.542;2022-11-20T02:41:34;6.32;;;2.67;;
72715;SDS011;60830;64.560;40.542;2022-11-20T02:44:00;5.70;;;2.78;;
72715;SDS011;60830;64.560;40.542;2022-11-20T02:46:27;6.90;;;3.33;;
72715;SDS011;60830;64.560;40.542;2022-11-20T02:48:53;5.88;;;2.50;;
72715;SDS011;60830;64.560;40.542;2022-11-20T02:51:19;5.82;;;2.35;;
72715;SDS011;60830;64.560;40.542;2022-11-20T02:53:45;5.55;;;2.45;;
72715;SDS011;60830;64.560;40.542;2022-11-20T02:56:11;7.68;;;3.33;;
72715;SDS011;60830;64.560;40.542;2022-11-20T02:58:37;7.78;;;2.70;;
72715;SDS011;60830;64.560;40.542;2022-11-20T03:01:04;10.07;;;2.97;;
72715;SDS011;60830;64.560;40.542;2022-11-20T03:03:30;7.82;;;2.90;;
72715;SDS011;60830;64.560;40.542;2022-11-20T03:05:58;6.85;;;2.47;;
72715;SDS011;60830;64.560;40.542;2022-11-20T03:08:24;10.70;;;3.15;;
72715;SDS011;60830;64.560;40.542;2022-11-20T03:10:50;8.93;;;2.90;;
72715;SDS011;60830;64.560;40.542;2022-11-20T03:13:16;4.78;;;2.75;;
72715;SDS011;60830;64.560;40.542;2022-11-20T03:15:42;4.75;;;2.75;;
72715;SDS011;60830;64.560;40.542;2022-11-20T03:18:08;5.97;;;2.42;;
72715;SDS011;60830;64.560;40.542;2022-11-20T03:20:34;12.00;;;2.70;;
72715;SDS011;60830;64.560;40.542;2022-11-20T03:23:00;7.80;;;2.70;;
72715;SDS011;60830;64.560;40.542;2022-11-20T03:25:27;6.28;;;2.28;;
72715;SDS011;60830;64.560;40.542;2022-11-20T03:27:53;4.35;;;2.20;;
72715;SDS011;60830;64.560;40.542;2022-11-20T03:30:19;8.20;;;2.72;;
72715;SDS011;60830;64.560;40.542;2022-11-20T03:32:45;3.75;;;2.55;;
72715;SDS011;60830;64.560;40.542;2022-11-20T03:35:11;7.63;;;3.13;;
72715;SDS011;60830;64.560;40.542;2022-11-20T03:37:37;5.97;;;2.85;;
72715;SDS011;60830;64.560;40.542;2022-11-20T03:40:04;5.22;;;3.00;;
72715;SDS011;60830;64.560;40.542;2022-11-20T03:42:30;8.43;;;3.70;;
72715;SDS011;60830;64.560;40.542;2022-11-20T03:45:12;9.20;;;4.30;;
72715;SDS011;60830;64.560;40.542;2022-11-20T03:47:38;10.23;;;4.20;;
72715;SDS011;60830;64.560;40.542;2022-11-20T03:50:04;11.18;;;4.20;;
72715;SDS011;60830;64.560;40.542;2022-11-20T03:52:30;4.97;;;3.35;;
72715;SDS011;60830;64.560;40.542;2022-11-20T03:54:57;5.13;;;2.83;;
72715;SDS011;60830;64.560;40.542;2022-11-20T03:57:23;8.15;;;3.47;;
72715;SDS011;60830;64.560;40.542;2022-11-20T03:59:49;7.53;;;3.40;;
72715;SDS011;60830;64.560;40.542;2022-11-20T04:02:15;6.05;;;4.07;;
72715;SDS011;60830;64.560;40.542;2022-11-20T04:04:41;8.27;;;4.25;;
72715;SDS011;60830;64.560;40.542;2022-11-20T04:07:07;8.50;;;3.78;;
72715;SDS011;60830;64.560;40.542;2022-11-20T04:09:33;11.80;;;3.75;;
72715;SDS011;60830;64.560;40.542;2022-11-20T04:11:59;5.60;;;3.10;;
72715;SDS011;60830;64.560;40.542;2022-11-20T04:14:25;10.38;;;4.88;;
72715;SDS011;60830;64.560;40.542;2022-11-20T04:16:51;8.55;;;4.13;;
72715;SDS011;60830;64.560;40.542;2022-11-20T04:19:18;6.38;;;4.00;;
72715;SDS011;60830;64.560;40.542;2022-11-20T04:21:44;7.75;;;4.72;;
72715;SDS011;60830;64.560;40.542;2022-11-20T04:24:10;9.95;;;4.05;;
72715;SDS011;60830;64.560;40.542;2022-11-20T04:26:37;8.55;;;4.10;;
72715;SDS011;60830;64.560;40.542;2022-11-20T04:29:03;7.82;;;4.13;;
72715;SDS011;60830;64.560;40.542;2022-11-20T04:31:30;13.27;;;5.70;;
72715;SDS011;60830;64.560;40.542;2022-11-20T04:34:00;9.38;;;5.15;;
72715;SDS011;60830;64.560;40.542;2022-11-20T04:36:27;17.23;;;5.13;;
72715;SDS011;60830;64.560;40.542;2022-11-20T04:38:54;10.15;;;4.82;;
72715;SDS011;60830;64.560;40.542;2022-11-20T04:41:21;11.25;;;4.53;;
72715;SDS011;60830;64.560;40.542;2022-11-20T04:43:48;9.32;;;4.68;;
72715;SDS011;60830;64.560;40.542;2022-11-20T04:46:15;11.77;;;5.05;;
72715;SDS011;60830;64.560;40.542;2022-11-20T04:48:41;11.25;;;5.25;;
72715;SDS011;60830;64.560;40.542;2022-11-20T04:51:07;11.48;;;5.90;;
72715;SDS011;60830;64.560;40.542;2022-11-20T04:53:33;13.57;;;4.88;;
72715;SDS011;60830;64.560;40.542;2022-11-20T04:56:03;14.30;;;5.65;;
72715;SDS011;60830;64.560;40.542;2022-11-20T04:58:30;7.05;;;4.65;;
72715;SDS011;60830;64.560;40.542;2022-11-20T05:01:02;10.93;;;4.60;;
72715;SDS011;60830;64.560;40.542;2022-11-20T05:03:29;8.98;;;4.43;;
72715;SDS011;60830;64.560;40.542;2022-11-20T05:05:55;14.77;;;4.80;;
72715;SDS011;60830;64.560;40.542;2022-11-20T05:08:22;16.17;;;4.53;;
72715;SDS011;60830;64.560;40.542;2022-11-20T05:10:48;9.05;;;4.53;;
72715;SDS011;60830;64.560;40.542;2022-11-20T05:13:14;11.05;;;4.75;;
72715;SDS011;60830;64.560;40.542;2022-11-20T05:15:40;10.90;;;3.85;;
72715;SDS011;60830;64.560;40.542;2022-11-20T05:18:06;9.63;;;4.20;;
72715;SDS011;60830;64.560;40.542;2022-11-20T05:20:33;8.32;;;4.32;;
72715;SDS011;60830;64.560;40.542;2022-11-20T05:22:59;6.32;;;4.13;;
72715;SDS011;60830;64.560;40.542;2022-11-20T05:25:25;11.68;;;4.63;;
72715;SDS011;60830;64.560;40.542;2022-11-20T05:27:51;9.27;;;4.90;;
72715;SDS011;60830;64.560;40.542;2022-11-20T05:30:17;8.82;;;4.85;;
72715;SDS011;60830;64.560;40.542;2022-11-20T05:32:43;9.32;;;4.97;;
72715;SDS011;60830;64.560;40.542;2022-11-20T05:35:09;15.40;;;6.03;;
72715;SDS011;60830;64.560;40.542;2022-11-20T05:37:35;15.00;;;4.45;;
72715;SDS011;60830;64.560;40.542;2022-11-20T05:40:01;9.60;;;4.38;;
72715;SDS011;60830;64.560;40.542;2022-11-20T05:42:30;16.63;;;5.40;;
72715;SDS011;60830;64.560;40.542;2022-11-20T05:44:56;13.32;;;4.57;;
72715;SDS011;60830;64.560;40.542;2022-11-20T05:47:22;14.70;;;5.30;;
72715;SDS011;60830;64.560;40.542;2022-11-20T05:49:48;9.10;;;4.10;;
72715;SDS011;60830;64.560;40.542;2022-11-20T05:52:14;9.57;;;4.53;;
72715;SDS011;60830;64.560;40.542;2022-11-20T05:54:41;7.13;;;4.05;;
72715;SDS011;60830;64.560;40.542;2022-11-20T05:57:07;12.00;;;4.70;;
72715;SDS011;60830;64.560;40.542;2022-11-20T05:59:33;12.70;;;5.03;;
72715;SDS011;60830;64.560;40.542;2022-11-20T06:01:59;11.75;;;4.70;;
72715;SDS011;60830;64.560;40.542;2022-11-20T06:04:25;9.88;;;4.40;;
72715;SDS011;60830;64.560;40.542;2022-11-20T06:06:51;7.18;;;4.57;;
72715;SDS011;60830;64.560;40.542;2022-11-20T06:09:17;8.90;;;4.40;;
72715;SDS011;60830;64.560;40.542;2022-11-20T06:11:43;10.13;;;4.25;;
72715;SDS011;60830;64.560;40.542;2022-11-20T06:14:09;8.60;;;4.00;;
72715;SDS011;60830;64.560;40.542;2022-11-20T06:16:35;11.32;;;4.32;;
72715;SDS011;60830;64.560;40.542;2022-11-20T06:19:01;13.30;;;4.28;;
72715;SDS011;60830;64.560;40.542;2022-11-20T06:21:27;9.48;;;3.72;;
72715;SDS011;60830;64.560;40.542;2022-11-20T06:23:53;9.07;;;3.67;;
72715;SDS011;60830;64.560;40.542;2022-11-20T06:28:45;8.15;;;4.28;;
72715;SDS011;60830;64.560;40.542;2022-11-20T06:31:12;9.80;;;4.93;;
72715;SDS011;60830;64.560;40.542;2022-11-20T06:33:39;12.35;;;5.60;;
72715;SDS011;60830;64.560;40.542;2022-11-20T06:36:05;10.65;;;4.55;;
72715;SDS011;60830;64.560;40.542;2022-11-20T06:38:31;11.35;;;5.03;;
72715;SDS011;60830;64.560;40.542;2022-11-20T06:40:58;11.68;;;4.53;;
72715;SDS011;60830;64.560;40.542;2022-11-20T06:43:24;12.65;;;4.65;;
72715;SDS011;60830;64.560;40.542;2022-11-20T06:45:53;10.88;;;4.35;;
72715;SDS011;60830;64.560;40.542;2022-11-20T06:48:20;7.55;;;4.40;;
72715;SDS011;60830;64.560;40.542;2022-11-20T06:50:46;10.05;;;3.88;;
72715;SDS011;60830;64.560;40.542;2022-11-20T06:53:13;7.18;;;4.05;;
72715;SDS011;60830;64.560;40.542;2022-11-20T06:55:42;10.93;;;4.60;;
72715;SDS011;60830;64.560;40.542;2022-11-20T06:58:09;13.43;;;4.28;;
72715;SDS011;60830;64.560;40.542;2022-11-20T07:00:35;9.50;;;4.88;;
72715;SDS011;60830;64.560;40.542;2022-11-20T07:03:05;9.48;;;4.70;;
72715;SDS011;60830;64.560;40.542;2022-11-20T07:05:31;8.10;;;5.00;;
72715;SDS011;60830;64.560;40.542;2022-11-20T07:07:58;14.90;;;5.28;;
72715;SDS011;60830;64.560;40.542;2022-11-20T07:10:24;11.63;;;5.15;;
72715;SDS011;60830;64.560;40.542;2022-11-20T07:12:51;11.40;;;5.45;;
72715;SDS011;60830;64.560;40.542;2022-11-20T07:15:18;10.00;;;5.57;;
72715;SDS011;60830;64.560;40.542;2022-11-20T07:17:44;16.45;;;5.70;;
72715;SDS011;60830;64.560;40.542;2022-11-20T07:20:10;14.48;;;5.72;;
72715;SDS011;60830;64.560;40.542;2022-11-20T07:22:36;10.73;;;5.38;;
72715;SDS011;60830;64.560;40.542;2022-11-20T07:25:02;14.48;;;6.40;;
72715;SDS011;60830;64.560;40.542;2022-11-20T07:27:29;12.00;;;6.78;;
72715;SDS011;60830;64.560;40.542;2022-11-20T07:29:55;13.30;;;5.63;;
72715;SDS011;60830;64.560;40.542;2022-11-20T07:32:21;13.20;;;5.32;;
72715;SDS011;60830;64.560;40.542;2022-11-20T07:34:47;11.73;;;6.40;;
72715;SDS011;60830;64.560;40.542;2022-11-20T07:37:13;12.30;;;5.40;;
72715;SDS011;60830;64.560;40.542;2022-11-20T07:39:39;14.15;;;6.07;;
72715;SDS011;60830;64.560;40.542;2022-11-20T07:42:06;15.18;;;6.88;;
72715;SDS011;60830;64.560;40.542;2022-11-20T07:44:36;16.17;;;6.43;;
72715;SDS011;60830;64.560;40.542;2022-11-20T07:47:02;12.57;;;5.78;;
72715;SDS011;60830;64.560;40.542;2022-11-20T07:49:28;11.48;;;5.53;;
72715;SDS011;60830;64.560;40.542;2022-11-20T07:51:54;19.90;;;7.25;;
72715;SDS011;60830;64.560;40.542;2022-11-20T07:54:21;11.25;;;6.57;;
72715;SDS011;60830;64.560;40.542;2022-11-20T07:56:50;14.07;;;5.90;;
72715;SDS011;60830;64.560;40.542;2022-11-20T07:59:16;12.27;;;5.97;;
72715;SDS011;60830;64.560;40.542;2022-11-20T08:01:42;11.98;;;5.63;;
72715;SDS011;60830;64.560;40.542;2022-11-20T08:04:09;10.38;;;5.65;;
72715;SDS011;60830;64.560;40.542;2022-11-20T08:06:35;21.63;;;6.60;;
72715;SDS011;60830;64.560;40.542;2022-11-20T08:09:02;15.43;;;7.30;;
72715;SDS011;60830;64.560;40.542;2022-11-20T08:11:28;10.88;;;6.00;;
72715;SDS011;60830;64.560;40.542;2022-11-20T08:14:13;17.50;;;7.45;;
72715;SDS011;60830;64.560;40.542;2022-11-20T08:16:39;16.65;;;7.95;;
72715;SDS011;60830;64.560;40.542;2022-11-20T08:19:06;14.00;;;6.45;;
72715;SDS011;60830;64.560;40.542;2022-11-20T08:21:32;12.65;;;5.22;;
72715;SDS011;60830;64.560;40.542;2022-11-20T08:23:59;11.15;;;5.15;;
72715;SDS011;60830;64.560;40.542;2022-11-20T08:26:25;12.40;;;4.70;;
72715;SDS011;60830;64.560;40.542;2022-11-20T08:28:55;10.07;;;4.85;;
72715;SDS011;60830;64.560;40.542;2022-11-20T08:31:21;11.80;;;4.38;;
72715;SDS011;60830;64.560;40.542;2022-11-20T08:33:48;10.40;;;5.13;;
72715;SDS011;60830;64.560;40.542;2022-11-20T08:36:14;9.68;;;4.65;;
72715;SDS011;60830;64.560;40.542;2022-11-20T08:38:40;8.10;;;4.38;;
72715;SDS011;60830;64.560;40.542;2022-11-20T08:41:06;14.45;;;4.40;;
72715;SDS011;60830;64.560;40.542;2022-11-20T08:43:52;8.43;;;4.38;;
72715;SDS011;60830;64.560;40.542;2022-11-20T08:46:18;8.32;;;5.03;;
72715;SDS011;60830;64.560;40.542;2022-11-20T08:48:44;10.25;;;4.68;;
72715;SDS011;60830;64.560;40.542;2022-11-20T08:51:10;8.25;;;4.65;;
72715;SDS011;60830;64.560;40.542;2022-11-20T08:53:37;16.50;;;6.43;;
72715;SDS011;60830;64.560;40.542;2022-11-20T08:56:03;15.45;;;5.70;;
72715;SDS011;60830;64.560;40.542;2022-11-20T08:58:29;8.20;;;5.40;;
72715;SDS011;60830;64.560;40.542;2022-11-20T09:00:56;11.75;;;5.07;;
72715;SDS011;60830;64.560;40.542;2022-11-20T09:03:22;14.25;;;5.68;;
72715;SDS011;60830;64.560;40.542;2022-11-20T09:05:48;14.38;;;5.70;;
72715;SDS011;60830;64.560;40.542;2022-11-20T09:08:14;12.07;;;6.10;;
72715;SDS011;60830;64.560;40.542;2022-11-20T09:10:40;12.85;;;4.55;;
72715;SDS011;60830;64.560;40.542;2022-11-20T09:13:06;13.30;;;6.20;;
72715;SDS011;60830;64.560;40.542;2022-11-20T09:15:32;13.70;;;7.90;;
72715;SDS011;60830;64.560;40.542;2022-11-20T09:18:00;11.18;;;6.57;;
72715;SDS011;60830;64.560;40.542;2022-11-20T09:20:27;11.27;;;6.72;;
72715;SDS011;60830;64.560;40.542;2022-11-20T09:22:55;14.73;;;7.78;;
72715;SDS011;60830;64.560;40.542;2022-11-20T09:25:21;12.30;;;6.55;;
72715;SDS011;60830;64.560;40.542;2022-11-20T09:27:47;16.50;;;6.15;;
72715;SDS011;60830;64.560;40.542;2022-11-20T09:30:14;11.02;;;4.63;;
72715;SDS011;60830;64.560;40.542;2022-11-20T09:32:40;10.45;;;5.18;;
72715;SDS011;60830;64.560;40.542;2022-11-20T09:35:07;9.65;;;5.45;;
72715;SDS011;60830;64.560;40.542;2022-11-20T09:37:33;12.20;;;5.55;;
72715;SDS011;60830;64.560;40.542;2022-11-20T09:39:59;16.98;;;6.28;;
72715;SDS011;60830;64.560;40.542;2022-11-20T09:50:10;9.32;;;5.20;;
72715;SDS011;60830;64.560;40.542;2022-11-20T09:52:47;9.88;;;5.53;;
72715;SDS011;60830;64.560;40.542;2022-11-20T09:55:16;11.23;;;5.28;;
72715;SDS011;60830;64.560;40.542;2022-11-20T09:57:48;13.02;;;6.90;;
72715;SDS011;60830;64.560;40.542;2022-11-20T10:00:16;14.48;;;7.10;;
72715;SDS011;60830;64.560;40.542;2022-11-20T10:10:28;11.15;;;4.60;;
72715;SDS011;60830;64.560;40.542;2022-11-20T10:17:55;11.73;;;5.13;;
72715;SDS011;60830;64.560;40.542;2022-11-20T10:25:45;14.70;;;4.45;;
72715;SDS011;60830;64.560;40.542;2022-11-20T10:28:20;9.10;;;4.22;;
72715;SDS011;60830;64.560;40.542;2022-11-20T10:30:52;11.68;;;4.88;;
72715;SDS011;60830;64.560;40.542;2022-11-20T10:33:21;7.53;;;3.97;;
72715;SDS011;60830;64.560;40.542;2022-11-20T10:36:05;11.27;;;5.97;;
72715;SDS011;60830;64.560;40.542;2022-11-20T10:38:38;13.50;;;5.53;;
72715;SDS011;60830;64.560;40.542;2022-11-20T10:41:04;11.85;;;5.78;;
72715;SDS011;60830;64.560;40.542;2022-11-20T10:46:17;9.55;;;4.70;;
72715;SDS011;60830;64.560;40.542;2022-11-20T10:48:44;9.50;;;4.53;;
72715;SDS011;60830;64.560;40.542;2022-11-20T10:54:09;12.25;;;5.35;;
72715;SDS011;60830;64.560;40.542;2022-11-20T10:59:11;12.75;;;6.40;;
72715;SDS011;60830;64.560;40.542;2022-11-20T11:01:43;9.07;;;5.18;;
72715;SDS011;60830;64.560;40.542;2022-11-20T11:04:28;9.23;;;5.15;;
72715;SDS011;60830;64.560;40.542;2022-11-20T11:07:01;11.88;;;5.32;;
72715;SDS011;60830;64.560;40.542;2022-11-20T11:09:32;10.18;;;5.57;;
72715;SDS011;60830;64.560;40.542;2022-11-20T11:11:59;14.95;;;5.82;;
72715;SDS011;60830;64.560;40.542;2022-11-20T11:14:25;9.45;;;5.30;;
72715;SDS011;60830;64.560;40.542;2022-11-20T11:16:55;12.30;;;5.35;;
72715;SDS011;60830;64.560;40.542;2022-11-20T11:19:21;14.85;;;6.82;;
72715;SDS011;60830;64.560;40.542;2022-11-20T11:21:51;10.18;;;4.88;;
72715;SDS011;60830;64.560;40.542;2022-11-20T11:24:22;9.27;;;4.85;;
72715;SDS011;60830;64.560;40.542;2022-11-20T11:27:21;10.45;;;6.00;;
72715;SDS011;60830;64.560;40.542;2022-11-20T11:29:43;8.63;;;5.28;;
72715;SDS011;60830;64.560;40.542;2022-11-20T11:32:13;11.95;;;6.35;;
72715;SDS011;60830;64.560;40.542;2022-11-20T11:34:40;13.90;;;7.03;;
72715;SDS011;60830;64.560;40.542;2022-11-20T11:37:18;15.43;;;6.85;;
72715;SDS011;60830;64.560;40.542;2022-11-20T11:39:47;8.07;;;5.18;;
72715;SDS011;60830;64.560;40.542;2022-11-20T11:42:16;13.02;;;6.10;;
72715;SDS011;60830;64.560;40.542;2022-11-20T11:44:46;11.48;;;6.22;;
72715;SDS011;60830;64.560;40.542;2022-11-20T11:55:13;14.93;;;8.23;;
72715;SDS011;60830;64.560;40.542;2022-11-20T12:00:09;11.65;;;5.35;;
72715;SDS011;60830;64.560;40.542;2022-11-20T12:07:43;11.63;;;5.55;;
72715;SDS011;60830;64.560;40.542;2022-11-20T12:10:14;8.70;;;4.95;;
72715;SDS011;60830;64.560;40.542;2022-11-20T12:12:42;7.88;;;4.72;;
72715;SDS011;60830;64.560;40.542;2022-11-20T12:15:10;11.88;;;4.53;;
72715;SDS011;60830;64.560;40.542;2022-11-20T12:17:37;7.78;;;4.70;;
72715;SDS011;60830;64.560;40.542;2022-11-20T12:20:05;10.68;;;4.57;;
72715;SDS011;60830;64.560;40.542;2022-11-20T12:22:35;10.85;;;3.90;;
72715;SDS011;60830;64.560;40.542;2022-11-20T12:25:15;12.18;;;4.53;;
72715;SDS011;60830;64.560;40.542;2022-11-20T12:30:19;7.15;;;4.15;;
72715;SDS011;60830;64.560;40.542;2022-11-20T12:40:47;8.98;;;4.65;;
72715;SDS011;60830;64.560;40.542;2022-11-20T12:43:19;6.60;;;4.88;;
72715;SDS011;60830;64.560;40.542;2022-11-20T12:46:08;9.52;;;5.63;;
72715;SDS011;60830;64.560;40.542;2022-11-20T13:02:00;11.77;;;5.18;;
72715;SDS011;60830;64.560;40.542;2022-11-20T13:07:15;7.78;;;3.70;;
72715;SDS011;60830;64.560;40.542;2022-11-20T13:09:45;8.13;;;4.68;;
72715;SDS011;60830;64.560;40.542;2022-11-20T13:12:32;12.23;;;5.13;;
72715;SDS011;60830;64.560;40.542;2022-11-20T13:15:18;11.57;;;4.32;;
72715;SDS011;60830;64.560;40.542;2022-11-20T13:17:51;13.57;;;5.05;;
72715;SDS011;60830;64.560;40.542;2022-11-20T13:20:19;10.70;;;4.97;;
72715;SDS011;60830;64.560;40.542;2022-11-20T13:22:49;10.27;;;4.40;;
72715;SDS011;60830;64.560;40.542;2022-11-20T13:25:23;11.95;;;5.38;;
72715;SDS011;60830;64.560;40.542;2022-11-20T13:27:49;10.75;;;5.32;;
72715;SDS011;60830;64.560;40.542;2022-11-20T13:30:19;11.60;;;6.15;;
72715;SDS011;60830;64.560;40.542;2022-11-20T13:32:56;11.68;;;5.82;;
72715;SDS011;60830;64.560;40.542;2022-11-20T13:35:35;12.32;;;5.55;;
72715;SDS011;60830;64.560;40.542;2022-11-20T13:38:06;20.52;;;6.97;;
72715;SDS011;60830;64.560;40.542;2022-11-20T13:40:33;7.82;;;4.53;;
72715;SDS011;60830;64.560;40.542;2022-11-20T13:45:29;10.73;;;5.65;;
72715;SDS011;60830;64.560;40.542;2022-11-20T13:47:56;13.23;;;5.18;;
72715;SDS011;60830;64.560;40.542;2022-11-20T13:50:59;9.30;;;4.57;;
72715;SDS011;60830;64.560;40.542;2022-11-20T14:01:14;13.15;;;4.72;;
72715;SDS011;60830;64.560;40.542;2022-11-20T14:03:41;10.75;;;5.95;;
72715;SDS011;60830;64.560;40.542;2022-11-20T14:06:20;7.78;;;4.78;;
72715;SDS011;60830;64.560;40.542;2022-11-20T14:08:48;9.45;;;5.43;;
72715;SDS011;60830;64.560;40.542;2022-11-20T14:13:50;10.63;;;4.97;;
72715;SDS011;60830;64.560;40.542;2022-11-20T14:16:19;11.63;;;4.97;;
72715;SDS011;60830;64.560;40.542;2022-11-20T14:18:45;7.70;;;3.80;;
72715;SDS011;60830;64.560;40.542;2022-11-20T14:21:11;12.02;;;5.35;;
72715;SDS011;60830;64.560;40.542;2022-11-20T14:23:37;7.80;;;4.22;;
72715;SDS011;60830;64.560;40.542;2022-11-20T14:26:04;11.07;;;4.45;;
72715;SDS011;60830;64.560;40.542;2022-11-20T14:28:30;13.85;;;5.85;;
72715;SDS011;60830;64.560;40.542;2022-11-20T14:30:57;8.18;;;4.05;;
72715;SDS011;60830;64.560;40.542;2022-11-20T14:33:23;9.98;;;4.82;;
72715;SDS011;60830;64.560;40.542;2022-11-20T14:35:55;11.50;;;4.57;;
72715;SDS011;60830;64.560;40.542;2022-11-20T14:38:22;8.05;;;4.97;;
72715;SDS011;60830;64.560;40.542;2022-11-20T14:40:49;11.93;;;4.78;;
72715;SDS011;60830;64.560;40.542;2022-11-20T14:43:21;11.23;;;5.15;;
72715;SDS011;60830;64.560;40.542;2022-11-20T14:45:58;12.70;;;5.00;;
72715;SDS011;60830;64.560;40.542;2022-11-20T14:48:28;11.98;;;4.95;;
72715;SDS011;60830;64.560;40.542;2022-11-20T14:50:55;9.50;;;4.95;;
72715;SDS011;60830;64.560;40.542;2022-11-20T14:53:24;8.48;;;4.35;;
72715;SDS011;60830;64.560;40.542;2022-11-20T14:56:01;11.93;;;4.68;;
72715;SDS011;60830;64.560;40.542;2022-11-20T14:58:31;8.77;;;5.15;;
72715;SDS011;60830;64.560;40.542;2022-11-20T15:03:38;10.70;;;5.07;;
72715;SDS011;60830;64.560;40.542;2022-11-20T15:06:11;11.93;;;6.07;;
72715;SDS011;60830;64.560;40.542;2022-11-20T15:08:37;8.23;;;3.80;;
72715;SDS011;60830;64.560;40.542;2022-11-20T15:11:14;10.85;;;4.22;;
72715;SDS011;60830;64.560;40.542;2022-11-20T15:13:42;12.48;;;4.25;;
72715;SDS011;60830;64.560;40.542;2022-11-20T15:16:12;9.90;;;4.72;;
72715;SDS011;60830;64.560;40.542;2022-11-20T15:18:40;8.27;;;4.57;;
72715;SDS011;60830;64.560;40.542;2022-11-20T15:21:11;8.95;;;4.93;;
72715;SDS011;60830;64.560;40.542;2022-11-20T15:23:37;9.02;;;4.90;;
72715;SDS011;60830;64.560;40.542;2022-11-20T15:26:04;11.90;;;5.90;;
72715;SDS011;60830;64.560;40.542;2022-11-20T15:28:35;9.95;;;4.90;;
72715;SDS011;60830;64.560;40.542;2022-11-20T15:31:03;8.13;;;5.10;;
72715;SDS011;60830;64.560;40.542;2022-11-20T15:33:29;8.60;;;5.30;;
72715;SDS011;60830;64.560;40.542;2022-11-20T15:35:56;9.98;;;4.85;;
72715;SDS011;60830;64.560;40.542;2022-11-20T15:38:22;6.97;;;4.72;;
72715;SDS011;60830;64.560;40.542;2022-11-20T15:40:48;9.50;;;4.80;;
72715;SDS011;60830;64.560;40.542;2022-11-20T15:43:14;10.60;;;5.00;;
72715;SDS011;60830;64.560;40.542;2022-11-20T15:45:41;8.75;;;4.35;;
72715;SDS011;60830;64.560;40.542;2022-11-20T15:48:12;9.82;;;3.78;;
72715;SDS011;60830;64.560;40.542;2022-11-20T15:53:25;11.65;;;4.13;;
72715;SDS011;60830;64.560;40.542;2022-11-20T15:55:51;6.70;;;3.70;;
72715;SDS011;60830;64.560;40.542;2022-11-20T15:58:18;9.40;;;4.50;;
72715;SDS011;60830;64.560;40.542;2022-11-20T16:00:44;8.32;;;4.25;;
72715;SDS011;60830;64.560;40.542;2022-11-20T16:03:10;7.65;;;3.92;;
72715;SDS011;60830;64.560;40.542;2022-11-20T16:05:36;8.32;;;4.55;;
72715;SDS011;60830;64.560;40.542;2022-11-20T16:08:03;10.75;;;4.90;;
72715;SDS011;60830;64.560;40.542;2022-11-20T16:10:29;6.03;;;2.88;;
72715;SDS011;60830;64.560;40.542;2022-11-20T16:12:55;11.07;;;4.93;;
72715;SDS011;60830;64.560;40.542;2022-11-20T16:15:39;11.27;;;4.10;;
72715;SDS011;60830;64.560;40.542;2022-11-20T16:18:13;6.85;;;4.15;;
72715;SDS011;60830;64.560;40.542;2022-11-20T16:20:42;7.30;;;3.92;;